sensor_id;sensor_type;location;lat;lon;timestamp;P1;durP1;ratioP1;P2;durP2;ratioP2
13457;SDS011;6801;53.018;11.560;2023-02-01T00:02:05;7.25;;;1.35;;
13457;SDS011;6801;53.018;11.560;2023-02-01T00:04:32;10.75;;;1.75;;
13457;SDS011;6801;53.018;11.560;2023-02-01T00:06:59;10.02;;;2.03;;
13457;SDS011;6801;53.018;11.560;2023-02-01T00:09:27;13.98;;;2.00;;
13457;SDS011;6801;53.018;11.560;2023-02-01T00:11:54;12.48;;;2.40;;
13457;SDS011;6801;53.018;11.560;2023-02-01T00:14:25;24.98;;;3.80;;
13457;SDS011;6801;53.018;11.560;2023-02-01T00:16:53;18.88;;;2.40;;
13457;SDS011;6801;53.018;11.560;2023-02-01T00:19:20;13.73;;;1.88;;
13457;SDS011;6801;53.018;11.560;2023-02-01T00:21:47;16.35;;;2.72;;
13457;SDS011;6801;53.018;11.560;2023-02-01T00:24:14;13.35;;;2.38;;
13457;SDS011;6801;53.018;11.560;2023-02-01T00:26:42;15.80;;;3.47;;
13457;SDS011;6801;53.018;11.560;2023-02-01T00:29:11;14.05;;;4.32;;
13457;SDS011;6801;53.018;11.560;2023-02-01T00:31:41;17.77;;;2.75;;
13457;SDS011;6801;53.018;11.560;2023-02-01T00:34:09;15.02;;;2.85;;
13457;SDS011;6801;53.018;11.560;2023-02-01T00:36:38;22.48;;;3.40;;
13457;SDS011;6801;53.018;11.560;2023-02-01T00:39:06;15.23;;;2.53;;
13457;SDS011;6801;53.018;11.560;2023-02-01T00:41:33;19.25;;;2.65;;
13457;SDS011;6801;53.018;11.560;2023-02-01T00:44:00;22.45;;;3.42;;
13457;SDS011;6801;53.018;11.560;2023-02-01T00:46:29;18.67;;;3.42;;
13457;SDS011;6801;53.018;11.560;2023-02-01T00:48:57;20.65;;;3.08;;
13457;SDS011;6801;53.018;11.560;2023-02-01T00:51:25;13.15;;;3.05;;
13457;SDS011;6801;53.018;11.560;2023-02-01T00:53:55;12.10;;;1.95;;
13457;SDS011;6801;53.018;11.560;2023-02-01T00:56:23;20.60;;;2.53;;
13457;SDS011;6801;53.018;11.560;2023-02-01T00:58:50;24.10;;;2.97;;
13457;SDS011;6801;53.018;11.560;2023-02-01T01:01:18;14.98;;;3.30;;
13457;SDS011;6801;53.018;11.560;2023-02-01T01:03:47;27.00;;;2.88;;
13457;SDS011;6801;53.018;11.560;2023-02-01T01:06:17;12.80;;;2.00;;
13457;SDS011;6801;53.018;11.560;2023-02-01T01:08:46;21.13;;;1.88;;
13457;SDS011;6801;53.018;11.560;2023-02-01T01:11:14;13.55;;;1.77;;
13457;SDS011;6801;53.018;11.560;2023-02-01T01:13:43;11.43;;;2.43;;
13457;SDS011;6801;53.018;11.560;2023-02-01T01:16:11;11.30;;;2.00;;
13457;SDS011;6801;53.018;11.560;2023-02-01T01:18:38;16.65;;;2.72;;
13457;SDS011;6801;53.018;11.560;2023-02-01T01:21:06;15.13;;;2.35;;
13457;SDS011;6801;53.018;11.560;2023-02-01T01:23:36;15.10;;;2.97;;
13457;SDS011;6801;53.018;11.560;2023-02-01T01:26:04;18.45;;;2.67;;
13457;SDS011;6801;53.018;11.560;2023-02-01T01:28:32;19.05;;;2.88;;
13457;SDS011;6801;53.018;11.560;2023-02-01T01:30:59;15.32;;;2.88;;
13457;SDS011;6801;53.018;11.560;2023-02-01T01:33:26;14.23;;;2.88;;
13457;SDS011;6801;53.018;11.560;2023-02-01T01:35:53;17.70;;;3.00;;
13457;SDS011;6801;53.018;11.560;2023-02-01T01:38:20;11.07;;;2.30;;
13457;SDS011;6801;53.018;11.560;2023-02-01T01:40:49;19.95;;;2.97;;
13457;SDS011;6801;53.018;11.560;2023-02-01T01:43:16;20.27;;;2.55;;
13457;SDS011;6801;53.018;11.560;2023-02-01T01:45:46;17.80;;;3.50;;
13457;SDS011;6801;53.018;11.560;2023-02-01T01:48:13;14.57;;;2.50;;
13457;SDS011;6801;53.018;11.560;2023-02-01T01:50:44;22.83;;;3.95;;
13457;SDS011;6801;53.018;11.560;2023-02-01T01:53:18;12.05;;;2.15;;
13457;SDS011;6801;53.018;11.560;2023-02-01T01:55:51;15.60;;;3.50;;
13457;SDS011;6801;53.018;11.560;2023-02-01T01:58:21;19.10;;;2.50;;
13457;SDS011;6801;53.018;11.560;2023-02-01T02:00:51;13.68;;;1.92;;
13457;SDS011;6801;53.018;11.560;2023-02-01T02:03:19;11.45;;;2.65;;
13457;SDS011;6801;53.018;11.560;2023-02-01T02:05:49;25.75;;;3.65;;
13457;SDS011;6801;53.018;11.560;2023-02-01T02:08:18;15.57;;;2.33;;
13457;SDS011;6801;53.018;11.560;2023-02-01T02:10:46;10.55;;;1.80;;
13457;SDS011;6801;53.018;11.560;2023-02-01T02:13:29;13.30;;;2.13;;
13457;SDS011;6801;53.018;11.560;2023-02-01T02:16:02;12.55;;;2.22;;
13457;SDS011;6801;53.018;11.560;2023-02-01T02:18:36;17.55;;;2.35;;
13457;SDS011;6801;53.018;11.560;2023-02-01T02:21:14;17.02;;;2.33;;
13457;SDS011;6801;53.018;11.560;2023-02-01T02:35:56;14.48;;;2.83;;
13457;SDS011;6801;53.018;11.560;2023-02-01T02:38:30;20.77;;;2.90;;
13457;SDS011;6801;53.018;11.560;2023-02-01T02:41:07;23.42;;;3.05;;
13457;SDS011;6801;53.018;11.560;2023-02-01T02:43:58;19.48;;;2.75;;
13457;SDS011;6801;53.018;11.560;2023-02-01T02:46:46;15.02;;;2.80;;
13457;SDS011;6801;53.018;11.560;2023-02-01T02:49:36;22.73;;;3.05;;
13457;SDS011;6801;53.018;11.560;2023-02-01T02:52:09;20.05;;;3.47;;
13457;SDS011;6801;53.018;11.560;2023-02-01T02:54:57;28.45;;;3.13;;
13457;SDS011;6801;53.018;11.560;2023-02-01T02:57:28;15.52;;;2.42;;
13457;SDS011;6801;53.018;11.560;2023-02-01T03:00:15;21.15;;;2.47;;
13457;SDS011;6801;53.018;11.560;2023-02-01T03:03:02;22.30;;;2.88;;
13457;SDS011;6801;53.018;11.560;2023-02-01T03:05:49;18.10;;;2.97;;
13457;SDS011;6801;53.018;11.560;2023-02-01T03:08:17;20.40;;;3.40;;
13457;SDS011;6801;53.018;11.560;2023-02-01T03:10:51;12.93;;;2.22;;
13457;SDS011;6801;53.018;11.560;2023-02-01T03:13:25;12.18;;;2.17;;
13457;SDS011;6801;53.018;11.560;2023-02-01T03:15:57;15.65;;;2.05;;
13457;SDS011;6801;53.018;11.560;2023-02-01T03:18:30;23.90;;;2.45;;
13457;SDS011;6801;53.018;11.560;2023-02-01T03:21:05;20.38;;;2.97;;
13457;SDS011;6801;53.018;11.560;2023-02-01T03:23:36;22.92;;;3.58;;
13457;SDS011;6801;53.018;11.560;2023-02-01T03:26:04;18.52;;;3.10;;
13457;SDS011;6801;53.018;11.560;2023-02-01T03:28:35;20.67;;;3.08;;
13457;SDS011;6801;53.018;11.560;2023-02-01T03:31:05;17.63;;;2.78;;
13457;SDS011;6801;53.018;11.560;2023-02-01T03:33:32;18.67;;;2.00;;
13457;SDS011;6801;53.018;11.560;2023-02-01T03:36:03;17.67;;;2.80;;
13457;SDS011;6801;53.018;11.560;2023-02-01T03:38:37;10.50;;;1.90;;
13457;SDS011;6801;53.018;11.560;2023-02-01T03:41:13;15.00;;;1.90;;
13457;SDS011;6801;53.018;11.560;2023-02-01T03:43:47;14.90;;;2.85;;
13457;SDS011;6801;53.018;11.560;2023-02-01T03:46:20;13.07;;;2.60;;
13457;SDS011;6801;53.018;11.560;2023-02-01T03:48:58;14.05;;;2.45;;
13457;SDS011;6801;53.018;11.560;2023-02-01T03:51:29;30.38;;;3.10;;
13457;SDS011;6801;53.018;11.560;2023-02-01T03:53:57;25.63;;;3.65;;
13457;SDS011;6801;53.018;11.560;2023-02-01T03:56:25;15.10;;;2.20;;
13457;SDS011;6801;53.018;11.560;2023-02-01T03:58:54;20.38;;;4.78;;
13457;SDS011;6801;53.018;11.560;2023-02-01T04:01:28;22.23;;;3.55;;
13457;SDS011;6801;53.018;11.560;2023-02-01T04:03:56;16.42;;;2.65;;
13457;SDS011;6801;53.018;11.560;2023-02-01T04:06:24;14.02;;;2.88;;
13457;SDS011;6801;53.018;11.560;2023-02-01T04:08:54;26.23;;;4.22;;
13457;SDS011;6801;53.018;11.560;2023-02-01T04:11:21;20.35;;;3.88;;
13457;SDS011;6801;53.018;11.560;2023-02-01T04:13:48;14.40;;;2.05;;
13457;SDS011;6801;53.018;11.560;2023-02-01T04:16:15;25.58;;;3.83;;
13457;SDS011;6801;53.018;11.560;2023-02-01T04:18:42;16.98;;;3.17;;
13457;SDS011;6801;53.018;11.560;2023-02-01T04:21:09;16.92;;;2.75;;
13457;SDS011;6801;53.018;11.560;2023-02-01T04:23:35;18.60;;;2.90;;
13457;SDS011;6801;53.018;11.560;2023-02-01T04:26:04;28.52;;;3.58;;
13457;SDS011;6801;53.018;11.560;2023-02-01T04:28:31;17.92;;;3.17;;
13457;SDS011;6801;53.018;11.560;2023-02-01T04:30:58;12.70;;;2.03;;
13457;SDS011;6801;53.018;11.560;2023-02-01T04:33:25;16.13;;;1.83;;
13457;SDS011;6801;53.018;11.560;2023-02-01T04:35:52;23.63;;;3.72;;
13457;SDS011;6801;53.018;11.560;2023-02-01T04:38:19;17.55;;;2.88;;
13457;SDS011;6801;53.018;11.560;2023-02-01T04:40:47;22.83;;;3.28;;
13457;SDS011;6801;53.018;11.560;2023-02-01T04:43:16;19.05;;;3.33;;
13457;SDS011;6801;53.018;11.560;2023-02-01T04:45:46;19.05;;;3.15;;
13457;SDS011;6801;53.018;11.560;2023-02-01T04:48:14;18.75;;;4.47;;
13457;SDS011;6801;53.018;11.560;2023-02-01T04:50:42;18.73;;;2.63;;
13457;SDS011;6801;53.018;11.560;2023-02-01T04:53:10;16.17;;;2.80;;
13457;SDS011;6801;53.018;11.560;2023-02-01T04:55:37;21.35;;;3.00;;
13457;SDS011;6801;53.018;11.560;2023-02-01T04:58:04;24.38;;;4.32;;
13457;SDS011;6801;53.018;11.560;2023-02-01T05:00:32;22.55;;;3.65;;
13457;SDS011;6801;53.018;11.560;2023-02-01T05:02:59;11.95;;;2.65;;
13457;SDS011;6801;53.018;11.560;2023-02-01T05:05:26;21.27;;;3.53;;
13457;SDS011;6801;53.018;11.560;2023-02-01T05:07:54;14.10;;;2.80;;
13457;SDS011;6801;53.018;11.560;2023-02-01T05:10:21;18.35;;;3.20;;
13457;SDS011;6801;53.018;11.560;2023-02-01T05:12:48;12.50;;;2.47;;
13457;SDS011;6801;53.018;11.560;2023-02-01T05:15:34;12.18;;;3.00;;
13457;SDS011;6801;53.018;11.560;2023-02-01T05:18:01;21.33;;;2.67;;
13457;SDS011;6801;53.018;11.560;2023-02-01T05:20:28;12.93;;;2.15;;
13457;SDS011;6801;53.018;11.560;2023-02-01T05:22:55;14.52;;;3.65;;
13457;SDS011;6801;53.018;11.560;2023-02-01T05:25:22;9.65;;;2.33;;
13457;SDS011;6801;53.018;11.560;2023-02-01T05:27:49;13.68;;;1.50;;
13457;SDS011;6801;53.018;11.560;2023-02-01T05:30:16;14.57;;;2.80;;
13457;SDS011;6801;53.018;11.560;2023-02-01T05:32:44;16.58;;;2.78;;
13457;SDS011;6801;53.018;11.560;2023-02-01T05:35:11;12.32;;;2.53;;
13457;SDS011;6801;53.018;11.560;2023-02-01T05:37:38;15.93;;;2.58;;
13457;SDS011;6801;53.018;11.560;2023-02-01T05:40:05;16.83;;;3.45;;
13457;SDS011;6801;53.018;11.560;2023-02-01T05:42:33;12.32;;;2.45;;
13457;SDS011;6801;53.018;11.560;2023-02-01T05:45:00;12.98;;;3.30;;
13457;SDS011;6801;53.018;11.560;2023-02-01T05:47:27;17.73;;;9.48;;
13457;SDS011;6801;53.018;11.560;2023-02-01T05:49:56;12.05;;;1.73;;
13457;SDS011;6801;53.018;11.560;2023-02-01T05:52:23;14.60;;;2.35;;
13457;SDS011;6801;53.018;11.560;2023-02-01T05:54:49;9.68;;;1.90;;
13457;SDS011;6801;53.018;11.560;2023-02-01T05:57:17;16.50;;;2.80;;
13457;SDS011;6801;53.018;11.560;2023-02-01T05:59:45;10.13;;;2.00;;
13457;SDS011;6801;53.018;11.560;2023-02-01T06:02:13;21.20;;;3.75;;
13457;SDS011;6801;53.018;11.560;2023-02-01T06:04:41;11.77;;;1.92;;
13457;SDS011;6801;53.018;11.560;2023-02-01T06:07:09;13.30;;;2.00;;
13457;SDS011;6801;53.018;11.560;2023-02-01T06:09:36;17.05;;;2.17;;
13457;SDS011;6801;53.018;11.560;2023-02-01T06:12:04;6.45;;;1.52;;
13457;SDS011;6801;53.018;11.560;2023-02-01T06:14:31;13.80;;;2.17;;
13457;SDS011;6801;53.018;11.560;2023-02-01T06:16:58;13.13;;;2.10;;
13457;SDS011;6801;53.018;11.560;2023-02-01T06:19:26;6.97;;;1.85;;
13457;SDS011;6801;53.018;11.560;2023-02-01T06:21:53;5.25;;;1.75;;
13457;SDS011;6801;53.018;11.560;2023-02-01T06:24:22;14.27;;;1.55;;
13457;SDS011;6801;53.018;11.560;2023-02-01T06:26:49;12.20;;;2.65;;
13457;SDS011;6801;53.018;11.560;2023-02-01T06:29:16;7.63;;;1.88;;
13457;SDS011;6801;53.018;11.560;2023-02-01T06:31:43;10.32;;;1.38;;
13457;SDS011;6801;53.018;11.560;2023-02-01T06:34:10;11.40;;;1.90;;
13457;SDS011;6801;53.018;11.560;2023-02-01T06:36:37;12.35;;;1.92;;
13457;SDS011;6801;53.018;11.560;2023-02-01T06:39:05;7.30;;;1.70;;
13457;SDS011;6801;53.018;11.560;2023-02-01T06:41:33;6.88;;;1.80;;
13457;SDS011;6801;53.018;11.560;2023-02-01T06:44:00;8.82;;;1.67;;
13457;SDS011;6801;53.018;11.560;2023-02-01T06:46:27;9.18;;;1.42;;
13457;SDS011;6801;53.018;11.560;2023-02-01T06:52:35;3.83;;;1.00;;
13457;SDS011;6801;53.018;11.560;2023-02-01T06:55:02;4.45;;;0.73;;
13457;SDS011;6801;53.018;11.560;2023-02-01T06:57:32;2.35;;;0.63;;
13457;SDS011;6801;53.018;11.560;2023-02-01T07:00:01;2.28;;;0.60;;
13457;SDS011;6801;53.018;11.560;2023-02-01T07:02:29;1.75;;;0.63;;
13457;SDS011;6801;53.018;11.560;2023-02-01T07:04:56;3.47;;;0.63;;
13457;SDS011;6801;53.018;11.560;2023-02-01T07:07:23;3.22;;;0.70;;
13457;SDS011;6801;53.018;11.560;2023-02-01T07:09:50;2.35;;;0.50;;
13457;SDS011;6801;53.018;11.560;2023-02-01T07:12:18;3.03;;;1.00;;
13457;SDS011;6801;53.018;11.560;2023-02-01T07:14:47;3.28;;;0.90;;
13457;SDS011;6801;53.018;11.560;2023-02-01T07:17:14;2.20;;;0.50;;
13457;SDS011;6801;53.018;11.560;2023-02-01T07:19:41;0.63;;;0.30;;
13457;SDS011;6801;53.018;11.560;2023-02-01T07:22:07;2.67;;;0.60;;
13457;SDS011;6801;53.018;11.560;2023-02-01T07:24:34;1.67;;;0.70;;
13457;SDS011;6801;53.018;11.560;2023-02-01T07:27:01;4.10;;;0.90;;
13457;SDS011;6801;53.018;11.560;2023-02-01T07:29:28;3.40;;;0.60;;
13457;SDS011;6801;53.018;11.560;2023-02-01T07:31:57;2.05;;;0.50;;
13457;SDS011;6801;53.018;11.560;2023-02-01T07:34:25;2.88;;;0.60;;
13457;SDS011;6801;53.018;11.560;2023-02-01T07:36:52;1.95;;;0.55;;
13457;SDS011;6801;53.018;11.560;2023-02-01T07:39:19;2.13;;;0.30;;
13457;SDS011;6801;53.018;11.560;2023-02-01T07:41:46;0.70;;;0.40;;
13457;SDS011;6801;53.018;11.560;2023-02-01T07:44:13;1.27;;;0.57;;
13457;SDS011;6801;53.018;11.560;2023-02-01T07:46:40;3.08;;;0.63;;
13457;SDS011;6801;53.018;11.560;2023-02-01T07:49:09;1.42;;;0.40;;
13457;SDS011;6801;53.018;11.560;2023-02-01T07:51:38;1.75;;;0.60;;
13457;SDS011;6801;53.018;11.560;2023-02-01T07:54:05;2.72;;;0.40;;
13457;SDS011;6801;53.018;11.560;2023-02-01T07:56:32;1.80;;;0.40;;
13457;SDS011;6801;53.018;11.560;2023-02-01T07:58:59;2.17;;;0.30;;
13457;SDS011;6801;53.018;11.560;2023-02-01T08:01:27;1.27;;;0.22;;
13457;SDS011;6801;53.018;11.560;2023-02-01T08:03:54;2.45;;;0.30;;
13457;SDS011;6801;53.018;11.560;2023-02-01T08:06:25;1.35;;;0.30;;
13457;SDS011;6801;53.018;11.560;2023-02-01T08:08:53;0.77;;;0.35;;
13457;SDS011;6801;53.018;11.560;2023-02-01T08:11:21;0.75;;;0.30;;
13457;SDS011;6801;53.018;11.560;2023-02-01T08:13:49;0.95;;;0.40;;
13457;SDS011;6801;53.018;11.560;2023-02-01T08:16:16;2.65;;;0.85;;
13457;SDS011;6801;53.018;11.560;2023-02-01T08:18:45;2.15;;;0.40;;
13457;SDS011;6801;53.018;11.560;2023-02-01T08:21:13;0.98;;;0.20;;
13457;SDS011;6801;53.018;11.560;2023-02-01T08:23:42;0.63;;;0.30;;
13457;SDS011;6801;53.018;11.560;2023-02-01T08:26:11;0.47;;;0.10;;
13457;SDS011;6801;53.018;11.560;2023-02-01T08:28:41;0.43;;;0.20;;
13457;SDS011;6801;53.018;11.560;2023-02-01T08:31:10;3.92;;;0.30;;
13457;SDS011;6801;53.018;11.560;2023-02-01T08:33:39;1.92;;;0.40;;
13457;SDS011;6801;53.018;11.560;2023-02-01T08:36:08;1.65;;;0.50;;
13457;SDS011;6801;53.018;11.560;2023-02-01T08:38:35;1.30;;;0.45;;
13457;SDS011;6801;53.018;11.560;2023-02-01T08:41:06;0.75;;;0.20;;
13457;SDS011;6801;53.018;11.560;2023-02-01T08:43:34;1.85;;;0.40;;
13457;SDS011;6801;53.018;11.560;2023-02-01T08:46:02;3.55;;;0.50;;
13457;SDS011;6801;53.018;11.560;2023-02-01T08:48:29;1.27;;;0.30;;
13457;SDS011;6801;53.018;11.560;2023-02-01T08:50:56;4.70;;;0.82;;
13457;SDS011;6801;53.018;11.560;2023-02-01T08:53:23;1.20;;;0.30;;
13457;SDS011;6801;53.018;11.560;2023-02-01T08:55:50;7.35;;;0.68;;
13457;SDS011;6801;53.018;11.560;2023-02-01T08:58:19;5.75;;;0.70;;
13457;SDS011;6801;53.018;11.560;2023-02-01T09:00:46;2.90;;;0.60;;
13457;SDS011;6801;53.018;11.560;2023-02-01T09:03:14;8.65;;;0.90;;
13457;SDS011;6801;53.018;11.560;2023-02-01T09:05:41;2.25;;;0.63;;
13457;SDS011;6801;53.018;11.560;2023-02-01T09:08:08;5.38;;;0.98;;
13457;SDS011;6801;53.018;11.560;2023-02-01T09:10:38;3.97;;;0.40;;
13457;SDS011;6801;53.018;11.560;2023-02-01T09:13:06;7.65;;;0.95;;
13457;SDS011;6801;53.018;11.560;2023-02-01T09:15:34;6.68;;;1.00;;
13457;SDS011;6801;53.018;11.560;2023-02-01T09:18:01;7.45;;;1.50;;
13457;SDS011;6801;53.018;11.560;2023-02-01T09:20:28;6.97;;;1.00;;
13457;SDS011;6801;53.018;11.560;2023-02-01T09:22:55;8.15;;;1.30;;
13457;SDS011;6801;53.018;11.560;2023-02-01T09:25:22;8.65;;;1.15;;
13457;SDS011;6801;53.018;11.560;2023-02-01T09:27:49;7.20;;;0.90;;
13457;SDS011;6801;53.018;11.560;2023-02-01T09:30:16;7.15;;;1.10;;
13457;SDS011;6801;53.018;11.560;2023-02-01T09:32:45;8.38;;;1.30;;
13457;SDS011;6801;53.018;11.560;2023-02-01T09:35:12;6.22;;;1.08;;
13457;SDS011;6801;53.018;11.560;2023-02-01T09:37:38;7.57;;;1.33;;
13457;SDS011;6801;53.018;11.560;2023-02-01T09:40:06;9.18;;;1.85;;
13457;SDS011;6801;53.018;11.560;2023-02-01T09:42:45;12.40;;;2.10;;
13457;SDS011;6801;53.018;11.560;2023-02-01T09:45:32;9.77;;;1.98;;
13457;SDS011;6801;53.018;11.560;2023-02-01T09:48:08;6.47;;;1.48;;
13457;SDS011;6801;53.018;11.560;2023-02-01T09:50:42;6.38;;;1.50;;
13457;SDS011;6801;53.018;11.560;2023-02-01T09:53:12;13.13;;;1.83;;
13457;SDS011;6801;53.018;11.560;2023-02-01T09:55:45;11.57;;;1.80;;
13457;SDS011;6801;53.018;11.560;2023-02-01T09:58:14;10.30;;;2.00;;
13457;SDS011;6801;53.018;11.560;2023-02-01T10:00:48;10.75;;;1.83;;
13457;SDS011;6801;53.018;11.560;2023-02-01T10:03:19;11.43;;;1.95;;
13457;SDS011;6801;53.018;11.560;2023-02-01T10:05:52;10.05;;;2.00;;
13457;SDS011;6801;53.018;11.560;2023-02-01T10:08:33;9.30;;;1.60;;
13457;SDS011;6801;53.018;11.560;2023-02-01T10:11:09;16.10;;;3.10;;
13457;SDS011;6801;53.018;11.560;2023-02-01T10:13:48;12.00;;;1.80;;
13457;SDS011;6801;53.018;11.560;2023-02-01T10:16:23;10.85;;;2.15;;
13457;SDS011;6801;53.018;11.560;2023-02-01T10:19:06;10.43;;;2.53;;
13457;SDS011;6801;53.018;11.560;2023-02-01T10:21:49;13.63;;;2.25;;
13457;SDS011;6801;53.018;11.560;2023-02-01T10:24:22;17.15;;;2.40;;
13457;SDS011;6801;53.018;11.560;2023-02-01T10:27:01;18.40;;;1.83;;
13457;SDS011;6801;53.018;11.560;2023-02-01T10:29:36;11.90;;;2.25;;
13457;SDS011;6801;53.018;11.560;2023-02-01T10:32:09;12.35;;;2.60;;
13457;SDS011;6801;53.018;11.560;2023-02-01T10:34:41;16.05;;;2.75;;
13457;SDS011;6801;53.018;11.560;2023-02-01T10:37:13;19.92;;;2.45;;
13457;SDS011;6801;53.018;11.560;2023-02-01T10:39:46;11.75;;;2.20;;
13457;SDS011;6801;53.018;11.560;2023-02-01T10:42:14;14.60;;;2.20;;
13457;SDS011;6801;53.018;11.560;2023-02-01T10:44:43;19.98;;;2.88;;
13457;SDS011;6801;53.018;11.560;2023-02-01T10:47:13;15.48;;;3.15;;
13457;SDS011;6801;53.018;11.560;2023-02-01T10:49:43;13.80;;;1.83;;
13457;SDS011;6801;53.018;11.560;2023-02-01T10:52:16;13.77;;;2.10;;
13457;SDS011;6801;53.018;11.560;2023-02-01T10:54:52;11.68;;;2.92;;
13457;SDS011;6801;53.018;11.560;2023-02-01T10:57:20;9.50;;;1.60;;
13457;SDS011;6801;53.018;11.560;2023-02-01T10:59:49;10.93;;;2.08;;
13457;SDS011;6801;53.018;11.560;2023-02-01T11:02:19;8.52;;;1.80;;
13457;SDS011;6801;53.018;11.560;2023-02-01T11:04:59;8.80;;;1.75;;
13457;SDS011;6801;53.018;11.560;2023-02-01T11:07:29;12.00;;;2.33;;
13457;SDS011;6801;53.018;11.560;2023-02-01T11:09:57;9.20;;;2.28;;
13457;SDS011;6801;53.018;11.560;2023-02-01T11:12:28;9.02;;;1.65;;
13457;SDS011;6801;53.018;11.560;2023-02-01T11:14:57;17.77;;;2.50;;
13457;SDS011;6801;53.018;11.560;2023-02-01T11:17:39;11.93;;;2.25;;
13457;SDS011;6801;53.018;11.560;2023-02-01T11:20:12;12.63;;;1.67;;
13457;SDS011;6801;53.018;11.560;2023-02-01T11:22:45;13.73;;;2.08;;
13457;SDS011;6801;53.018;11.560;2023-02-01T11:25:13;10.88;;;1.80;;
13457;SDS011;6801;53.018;11.560;2023-02-01T11:27:42;12.02;;;2.13;;
13457;SDS011;6801;53.018;11.560;2023-02-01T11:30:13;12.93;;;2.03;;
13457;SDS011;6801;53.018;11.560;2023-02-01T11:32:42;8.70;;;1.65;;
13457;SDS011;6801;53.018;11.560;2023-02-01T11:35:13;7.00;;;1.92;;
13457;SDS011;6801;53.018;11.560;2023-02-01T11:37:44;12.95;;;2.25;;
13457;SDS011;6801;53.018;11.560;2023-02-01T11:40:22;11.93;;;2.38;;
13457;SDS011;6801;53.018;11.560;2023-02-01T11:42:54;14.88;;;2.05;;
13457;SDS011;6801;53.018;11.560;2023-02-01T11:45:24;6.53;;;1.27;;
13457;SDS011;6801;53.018;11.560;2023-02-01T11:47:52;17.73;;;2.63;;
13457;SDS011;6801;53.018;11.560;2023-02-01T11:50:25;13.00;;;3.03;;
13457;SDS011;6801;53.018;11.560;2023-02-01T11:53:25;11.98;;;2.28;;
13457;SDS011;6801;53.018;11.560;2023-02-01T11:56:03;16.73;;;2.60;;
13457;SDS011;6801;53.018;11.560;2023-02-01T11:58:49;11.80;;;1.80;;
13457;SDS011;6801;53.018;11.560;2023-02-01T12:01:40;14.95;;;1.70;;
13457;SDS011;6801;53.018;11.560;2023-02-01T12:04:28;13.18;;;2.33;;
13457;SDS011;6801;53.018;11.560;2023-02-01T12:07:20;11.13;;;1.55;;
13457;SDS011;6801;53.018;11.560;2023-02-01T12:10:01;13.93;;;1.88;;
13457;SDS011;6801;53.018;11.560;2023-02-01T12:12:44;9.70;;;1.83;;
13457;SDS011;6801;53.018;11.560;2023-02-01T12:15:22;7.65;;;0.93;;
13457;SDS011;6801;53.018;11.560;2023-02-01T12:18:04;11.43;;;1.58;;
13457;SDS011;6801;53.018;11.560;2023-02-01T12:23:46;13.25;;;2.00;;
13457;SDS011;6801;53.018;11.560;2023-02-01T12:29:29;5.75;;;1.15;;
13457;SDS011;6801;53.018;11.560;2023-02-01T12:35:13;7.63;;;1.80;;
13457;SDS011;6801;53.018;11.560;2023-02-01T12:38:03;12.60;;;1.73;;
13457;SDS011;6801;53.018;11.560;2023-02-01T12:40:52;15.63;;;2.35;;
13457;SDS011;6801;53.018;11.560;2023-02-01T12:43:31;10.13;;;1.90;;
13457;SDS011;6801;53.018;11.560;2023-02-01T12:46:06;8.82;;;1.48;;
13457;SDS011;6801;53.018;11.560;2023-02-01T12:48:37;10.90;;;1.52;;
13457;SDS011;6801;53.018;11.560;2023-02-01T12:51:09;7.30;;;1.17;;
13457;SDS011;6801;53.018;11.560;2023-02-01T12:53:43;8.10;;;1.55;;
13457;SDS011;6801;53.018;11.560;2023-02-01T12:56:15;18.67;;;2.75;;
13457;SDS011;6801;53.018;11.560;2023-02-01T12:58:48;3.13;;;1.27;;
13457;SDS011;6801;53.018;11.560;2023-02-01T13:01:19;6.45;;;1.15;;
13457;SDS011;6801;53.018;11.560;2023-02-01T13:06:19;7.45;;;1.10;;
13457;SDS011;6801;53.018;11.560;2023-02-01T13:08:50;8.50;;;1.33;;
13457;SDS011;6801;53.018;11.560;2023-02-01T13:11:24;6.65;;;1.13;;
13457;SDS011;6801;53.018;11.560;2023-02-01T13:13:57;3.55;;;1.05;;
13457;SDS011;6801;53.018;11.560;2023-02-01T13:16:30;5.40;;;0.90;;
13457;SDS011;6801;53.018;11.560;2023-02-01T13:19:02;4.68;;;1.13;;
13457;SDS011;6801;53.018;11.560;2023-02-01T13:21:36;4.18;;;0.63;;
13457;SDS011;6801;53.018;11.560;2023-02-01T13:24:10;3.95;;;0.52;;
13457;SDS011;6801;53.018;11.560;2023-02-01T13:26:54;6.35;;;1.02;;
13457;SDS011;6801;53.018;11.560;2023-02-01T13:29:21;7.22;;;1.00;;
13457;SDS011;6801;53.018;11.560;2023-02-01T13:32:00;1.10;;;0.50;;
13457;SDS011;6801;53.018;11.560;2023-02-01T13:34:49;5.80;;;0.88;;
13457;SDS011;6801;53.018;11.560;2023-02-01T13:37:56;6.00;;;1.10;;
13457;SDS011;6801;53.018;11.560;2023-02-01T13:40:39;5.50;;;0.80;;
13457;SDS011;6801;53.018;11.560;2023-02-01T13:43:13;1.15;;;0.35;;
13457;SDS011;6801;53.018;11.560;2023-02-01T13:45:46;5.40;;;0.95;;
13457;SDS011;6801;53.018;11.560;2023-02-01T13:48:20;2.85;;;0.65;;
13457;SDS011;6801;53.018;11.560;2023-02-01T13:50:51;3.88;;;0.32;;
13457;SDS011;6801;53.018;11.560;2023-02-01T13:53:23;3.10;;;0.98;;
13457;SDS011;6801;53.018;11.560;2023-02-01T13:56:00;2.95;;;0.40;;
13457;SDS011;6801;53.018;11.560;2023-02-01T13:58:34;2.58;;;0.63;;
13457;SDS011;6801;53.018;11.560;2023-02-01T14:03:47;2.25;;;0.68;;
13457;SDS011;6801;53.018;11.560;2023-02-01T14:06:16;1.10;;;0.13;;
13457;SDS011;6801;53.018;11.560;2023-02-01T14:09:11;2.85;;;0.47;;
13457;SDS011;6801;53.018;11.560;2023-02-01T14:11:44;1.98;;;0.32;;
13457;SDS011;6801;53.018;11.560;2023-02-01T14:23:15;1.10;;;0.30;;
13457;SDS011;6801;53.018;11.560;2023-02-01T14:25:44;1.40;;;0.30;;
13457;SDS011;6801;53.018;11.560;2023-02-01T14:28:12;1.30;;;0.25;;
13457;SDS011;6801;53.018;11.560;2023-02-01T14:30:52;1.00;;;0.30;;
13457;SDS011;6801;53.018;11.560;2023-02-01T14:33:21;0.57;;;0.40;;
13457;SDS011;6801;53.018;11.560;2023-02-01T14:35:55;0.65;;;0.20;;
13457;SDS011;6801;53.018;11.560;2023-02-01T14:38:31;0.73;;;0.20;;
13457;SDS011;6801;53.018;11.560;2023-02-01T14:41:12;1.85;;;0.70;;
13457;SDS011;6801;53.018;11.560;2023-02-01T14:55:53;1.27;;;0.10;;
13457;SDS011;6801;53.018;11.560;2023-02-01T14:58:30;0.73;;;0.15;;
13457;SDS011;6801;53.018;11.560;2023-02-01T15:01:05;1.00;;;0.10;;
13457;SDS011;6801;53.018;11.560;2023-02-01T15:03:45;0.32;;;0.10;;
13457;SDS011;6801;53.018;11.560;2023-02-01T15:06:30;0.40;;;0.05;;
13457;SDS011;6801;53.018;11.560;2023-02-01T15:09:00;0.28;;;0.10;;
13457;SDS011;6801;53.018;11.560;2023-02-01T15:11:30;0.20;;;0.10;;
13457;SDS011;6801;53.018;11.560;2023-02-01T15:13:57;0.10;;;0.03;;
13457;SDS011;6801;53.018;11.560;2023-02-01T15:16:25;0.47;;;0.10;;
13457;SDS011;6801;53.018;11.560;2023-02-01T15:21:44;1.42;;;0.20;;
13457;SDS011;6801;53.018;11.560;2023-02-01T15:24:13;1.73;;;0.10;;
13457;SDS011;6801;53.018;11.560;2023-02-01T15:26:44;3.72;;;0.38;;
13457;SDS011;6801;53.018;11.560;2023-02-01T15:29:12;0.20;;;0.10;;
13457;SDS011;6801;53.018;11.560;2023-02-01T15:31:40;1.50;;;0.10;;
13457;SDS011;6801;53.018;11.560;2023-02-01T15:34:11;0.95;;;0.30;;
13457;SDS011;6801;53.018;11.560;2023-02-01T15:36:38;0.40;;;0.10;;
13457;SDS011;6801;53.018;11.560;2023-02-01T15:39:19;0.20;;;0.10;;
13457;SDS011;6801;53.018;11.560;2023-02-01T15:41:51;1.75;;;0.20;;
13457;SDS011;6801;53.018;11.560;2023-02-01T15:44:21;0.10;;;0.10;;
13457;SDS011;6801;53.018;11.560;2023-02-01T15:47:04;2.30;;;0.30;;
13457;SDS011;6801;53.018;11.560;2023-02-01T15:49:38;2.70;;;0.32;;
13457;SDS011;6801;53.018;11.560;2023-02-01T15:52:20;3.38;;;0.40;;
13457;SDS011;6801;53.018;11.560;2023-02-01T15:54:51;1.88;;;0.40;;
13457;SDS011;6801;53.018;11.560;2023-02-01T15:57:22;3.67;;;0.50;;
13457;SDS011;6801;53.018;11.560;2023-02-01T15:59:55;1.83;;;0.55;;